Airfield :
LOGIN :

Register | Disclaimer

   EN    FR    IT 

 










Legend :    VFR   Marginal VFR   IFR   Intensive IFR   Very Intensive IFR
Visi :
Ceiling :
>= 8 km
>= 3000ft
5 to 8 km
1000 to 3000 ft
1500m to 5 km
500 to 1000 ft
800 to 1500m
200 to 500 ft
< 800m
< 200 ft
Symbols :   Thunderstorms  Fog  Heavy snow  Heavy precipitations  Wind > 20 kt
SIGMETs :     Misc.  Thunderstorms  Icing  Turbulence  Mountain Waves  Volcanic Ashes







- Airport Elevation : 374 ft
- IATA code : LIS


LPPT - Lisboa Portela

CURRENT METAR :
  • 250600Z 27003KT 200V360 9999 FEW012 SCT022 17/15 Q1016

EXPIRED METARs :
  • 250530Z 30003KT 270V330 9999 FEW014 17/15 Q1016
  • 250500Z 28003KT 250V320 9999 FEW014 17/15 Q1016
  • 250430Z 28004KT 250V310 9999 FEW014 17/15 Q1016
  • 250400Z 28004KT 230V320 9999 FEW014 17/15 Q1016
  • 250330Z 28004KT 250V310 9999 FEW012 17/15 Q1016

TAF TAF LPPT
Valid from the 25 at 06:00 until the 26 at 12:00 UTC


250500Z 2506/2612 30005KT 9999 FEW015
PROB30
TEMPO 2506/2508 BKN008
BECMG 2508/2510 BKN020
BECMG 2510/2513 31012KT SCT030
BECMG 2518/2521 33007KT CAVOK
TEMPO 2604/2610 9999 BKN015
No reported NOTAMs for that airfield.



MET'MAP, your aeronautical weather chart ! - Copyright ORBIFLY December 2007 - Disclaimer

ORBIFLY MET'MAP TEAM :

Programming & Development : Alexandra Zaïnal
Concept & Development : Baudouin d'Aumeries
Co-Development & Prog : Marc-Olivier Méhu
Technical & hardware support : Manuel Goepfert

Contact : metmap@orbifly.com




SOURCES & CREDITS :

   NOAA